Accueil
METAR-TAF:

METAR-TAF

Aéroports :

Bahreïn, Bahreïn

Aéroport international de Bahreïn

latitude: 26-16N, longitude: 050-39E, altitude: 2 m

Observation

Le bulletin a été fait il y a 44 minutes, à 04:30 UTC
Vent 12 kt de ouest/nord-ouest
Température 35°C
Humidité 32%
Pression 1000 hPa
Visibilité: 7000 m
Ciel clair

METAR: OBBI 260430Z 29012KT 7000 SKC 35/16 Q1000 NOSIG

Heure: 08:14 (05:14 UTC)


TAF: absent

Observations et prévisions météorologiques de plus de 4000 aéroports (messages METAR et TAF).

Les stations disponibles sont représentées par des disques jaunes et rouges sur la carte.

Passer la souris dessus pour voir le nom de la station.

Cliquer dessus pour voir les observations et prévisions météorologiques.

Pour changer de carte: cliquez sur les boutons verts avec une croix noire pour zoomer, sur le bouton vert avec un tiret pour effectuer un zoom arrière, ou sur les flèches vertes pour les cartes adjacentes.


METAR-TAF: